sensor_id;sensor_type;location;lat;lon;timestamp;P1;durP1;ratioP1;P2;durP2;ratioP2
11681;SDS011;5897;42.640;23.310;2023-03-05T00:02:07;38.45;;;26.42;;
11681;SDS011;5897;42.640;23.310;2023-03-05T00:04:34;43.72;;;29.80;;
11681;SDS011;5897;42.640;23.310;2023-03-05T00:07:01;36.00;;;27.67;;
11681;SDS011;5897;42.640;23.310;2023-03-05T00:09:28;35.38;;;25.00;;
11681;SDS011;5897;42.640;23.310;2023-03-05T00:11:55;36.00;;;24.40;;
11681;SDS011;5897;42.640;23.310;2023-03-05T00:14:22;30.77;;;22.38;;
11681;SDS011;5897;42.640;23.310;2023-03-05T00:16:50;33.45;;;23.33;;
11681;SDS011;5897;42.640;23.310;2023-03-05T00:19:17;29.17;;;21.95;;
11681;SDS011;5897;42.640;23.310;2023-03-05T00:21:44;28.90;;;20.67;;
11681;SDS011;5897;42.640;23.310;2023-03-05T00:24:11;30.05;;;20.35;;
11681;SDS011;5897;42.640;23.310;2023-03-05T00:26:40;31.27;;;20.85;;
11681;SDS011;5897;42.640;23.310;2023-03-05T00:29:07;31.17;;;21.58;;
11681;SDS011;5897;42.640;23.310;2023-03-05T00:31:36;37.83;;;23.38;;
11681;SDS011;5897;42.640;23.310;2023-03-05T00:34:05;34.08;;;24.15;;
11681;SDS011;5897;42.640;23.310;2023-03-05T00:36:33;32.97;;;23.15;;
11681;SDS011;5897;42.640;23.310;2023-03-05T00:39:04;30.88;;;24.17;;
11681;SDS011;5897;42.640;23.310;2023-03-05T00:41:31;34.47;;;23.85;;
11681;SDS011;5897;42.640;23.310;2023-03-05T00:43:58;34.25;;;22.95;;
11681;SDS011;5897;42.640;23.310;2023-03-05T00:46:25;37.95;;;24.40;;
11681;SDS011;5897;42.640;23.310;2023-03-05T00:48:52;31.95;;;22.05;;
11681;SDS011;5897;42.640;23.310;2023-03-05T00:51:20;32.05;;;22.70;;
11681;SDS011;5897;42.640;23.310;2023-03-05T00:53:48;32.13;;;22.27;;
11681;SDS011;5897;42.640;23.310;2023-03-05T00:56:15;33.47;;;23.60;;
11681;SDS011;5897;42.640;23.310;2023-03-05T00:58:45;32.75;;;22.95;;
11681;SDS011;5897;42.640;23.310;2023-03-05T01:01:12;32.08;;;22.20;;
11681;SDS011;5897;42.640;23.310;2023-03-05T01:03:39;31.92;;;20.55;;
11681;SDS011;5897;42.640;23.310;2023-03-05T01:06:07;28.33;;;19.83;;
11681;SDS011;5897;42.640;23.310;2023-03-05T01:08:37;20.92;;;15.38;;
11681;SDS011;5897;42.640;23.310;2023-03-05T01:11:05;21.95;;;15.35;;
11681;SDS011;5897;42.640;23.310;2023-03-05T01:13:33;21.25;;;15.25;;
11681;SDS011;5897;42.640;23.310;2023-03-05T01:16:00;23.48;;;14.43;;
11681;SDS011;5897;42.640;23.310;2023-03-05T01:18:27;21.17;;;13.50;;
11681;SDS011;5897;42.640;23.310;2023-03-05T01:20:54;22.25;;;14.98;;
11681;SDS011;5897;42.640;23.310;2023-03-05T01:23:21;23.52;;;14.88;;
11681;SDS011;5897;42.640;23.310;2023-03-05T01:25:53;25.70;;;15.20;;
11681;SDS011;5897;42.640;23.310;2023-03-05T01:28:20;22.10;;;14.23;;
11681;SDS011;5897;42.640;23.310;2023-03-05T01:30:48;19.80;;;14.20;;
11681;SDS011;5897;42.640;23.310;2023-03-05T01:33:15;20.08;;;13.55;;
11681;SDS011;5897;42.640;23.310;2023-03-05T01:35:44;21.40;;;14.57;;
11681;SDS011;5897;42.640;23.310;2023-03-05T01:38:11;19.85;;;15.10;;
11681;SDS011;5897;42.640;23.310;2023-03-05T01:40:38;21.48;;;14.65;;
11681;SDS011;5897;42.640;23.310;2023-03-05T01:43:14;21.23;;;14.45;;
11681;SDS011;5897;42.640;23.310;2023-03-05T01:49:01;20.83;;;14.88;;
11681;SDS011;5897;42.640;23.310;2023-03-05T01:51:36;21.92;;;15.27;;
11681;SDS011;5897;42.640;23.310;2023-03-05T01:54:06;23.30;;;15.60;;
11681;SDS011;5897;42.640;23.310;2023-03-05T01:56:34;21.15;;;14.88;;
11681;SDS011;5897;42.640;23.310;2023-03-05T01:59:03;20.33;;;14.13;;
11681;SDS011;5897;42.640;23.310;2023-03-05T02:01:31;21.02;;;14.35;;
11681;SDS011;5897;42.640;23.310;2023-03-05T02:04:02;18.33;;;13.32;;
11681;SDS011;5897;42.640;23.310;2023-03-05T02:06:30;18.60;;;13.88;;
11681;SDS011;5897;42.640;23.310;2023-03-05T02:08:57;20.52;;;13.25;;
11681;SDS011;5897;42.640;23.310;2023-03-05T02:11:25;19.80;;;13.13;;
11681;SDS011;5897;42.640;23.310;2023-03-05T02:13:52;20.40;;;13.90;;
11681;SDS011;5897;42.640;23.310;2023-03-05T02:16:20;19.45;;;13.57;;
11681;SDS011;5897;42.640;23.310;2023-03-05T02:18:47;18.10;;;12.30;;
11681;SDS011;5897;42.640;23.310;2023-03-05T02:21:15;20.70;;;13.18;;
11681;SDS011;5897;42.640;23.310;2023-03-05T02:23:53;18.25;;;12.52;;
11681;SDS011;5897;42.640;23.310;2023-03-05T02:26:20;16.95;;;12.45;;
11681;SDS011;5897;42.640;23.310;2023-03-05T02:28:48;16.63;;;13.00;;
11681;SDS011;5897;42.640;23.310;2023-03-05T02:31:20;17.38;;;12.52;;
11681;SDS011;5897;42.640;23.310;2023-03-05T02:33:48;16.77;;;12.80;;
11681;SDS011;5897;42.640;23.310;2023-03-05T02:36:17;18.60;;;12.98;;
11681;SDS011;5897;42.640;23.310;2023-03-05T02:38:45;20.45;;;13.35;;
11681;SDS011;5897;42.640;23.310;2023-03-05T02:41:12;21.35;;;13.70;;
11681;SDS011;5897;42.640;23.310;2023-03-05T02:43:40;18.98;;;13.10;;
11681;SDS011;5897;42.640;23.310;2023-03-05T02:46:07;18.20;;;12.45;;
11681;SDS011;5897;42.640;23.310;2023-03-05T02:48:34;19.15;;;12.52;;
11681;SDS011;5897;42.640;23.310;2023-03-05T02:51:02;21.08;;;12.48;;
11681;SDS011;5897;42.640;23.310;2023-03-05T02:53:32;16.50;;;12.50;;
11681;SDS011;5897;42.640;23.310;2023-03-05T02:55:59;20.08;;;14.32;;
11681;SDS011;5897;42.640;23.310;2023-03-05T02:58:25;20.38;;;13.88;;
11681;SDS011;5897;42.640;23.310;2023-03-05T03:00:53;19.17;;;13.98;;
11681;SDS011;5897;42.640;23.310;2023-03-05T03:03:19;22.75;;;14.18;;
11681;SDS011;5897;42.640;23.310;2023-03-05T03:05:46;20.42;;;13.63;;
11681;SDS011;5897;42.640;23.310;2023-03-05T03:08:13;24.58;;;15.20;;
11681;SDS011;5897;42.640;23.310;2023-03-05T03:10:41;22.67;;;15.02;;
11681;SDS011;5897;42.640;23.310;2023-03-05T03:13:08;25.17;;;15.15;;
11681;SDS011;5897;42.640;23.310;2023-03-05T03:15:35;27.08;;;15.10;;
11681;SDS011;5897;42.640;23.310;2023-03-05T03:18:03;20.20;;;14.32;;
11681;SDS011;5897;42.640;23.310;2023-03-05T03:20:30;21.02;;;14.07;;
11681;SDS011;5897;42.640;23.310;2023-03-05T03:22:59;18.13;;;12.80;;
11681;SDS011;5897;42.640;23.310;2023-03-05T03:25:28;21.85;;;13.82;;
11681;SDS011;5897;42.640;23.310;2023-03-05T03:27:57;22.38;;;13.98;;
11681;SDS011;5897;42.640;23.310;2023-03-05T03:30:23;21.00;;;12.88;;
11681;SDS011;5897;42.640;23.310;2023-03-05T03:32:50;22.33;;;14.40;;
11681;SDS011;5897;42.640;23.310;2023-03-05T03:35:17;21.23;;;13.93;;
11681;SDS011;5897;42.640;23.310;2023-03-05T03:37:44;20.85;;;15.00;;
11681;SDS011;5897;42.640;23.310;2023-03-05T03:40:12;24.83;;;14.60;;
11681;SDS011;5897;42.640;23.310;2023-03-05T03:42:39;21.33;;;13.90;;
11681;SDS011;5897;42.640;23.310;2023-03-05T03:45:08;20.70;;;14.80;;
11681;SDS011;5897;42.640;23.310;2023-03-05T03:47:35;23.88;;;14.20;;
11681;SDS011;5897;42.640;23.310;2023-03-05T03:50:02;22.83;;;14.38;;
11681;SDS011;5897;42.640;23.310;2023-03-05T03:52:30;22.85;;;15.15;;
11681;SDS011;5897;42.640;23.310;2023-03-05T03:54:57;23.83;;;15.13;;
11681;SDS011;5897;42.640;23.310;2023-03-05T03:57:26;22.58;;;14.60;;
11681;SDS011;5897;42.640;23.310;2023-03-05T03:59:53;22.73;;;14.52;;
11681;SDS011;5897;42.640;23.310;2023-03-05T04:02:22;22.08;;;15.30;;
11681;SDS011;5897;42.640;23.310;2023-03-05T04:04:49;20.83;;;14.50;;
11681;SDS011;5897;42.640;23.310;2023-03-05T04:07:16;22.60;;;14.80;;
11681;SDS011;5897;42.640;23.310;2023-03-05T04:09:43;25.42;;;14.70;;
11681;SDS011;5897;42.640;23.310;2023-03-05T04:12:10;24.50;;;16.15;;
11681;SDS011;5897;42.640;23.310;2023-03-05T04:14:41;24.20;;;16.13;;
11681;SDS011;5897;42.640;23.310;2023-03-05T04:17:09;22.70;;;15.73;;
11681;SDS011;5897;42.640;23.310;2023-03-05T04:19:37;24.48;;;16.75;;
11681;SDS011;5897;42.640;23.310;2023-03-05T04:22:05;28.38;;;15.65;;
11681;SDS011;5897;42.640;23.310;2023-03-05T04:24:32;28.80;;;16.35;;
11681;SDS011;5897;42.640;23.310;2023-03-05T04:26:58;33.50;;;18.73;;
11681;SDS011;5897;42.640;23.310;2023-03-05T04:29:25;26.50;;;17.90;;
11681;SDS011;5897;42.640;23.310;2023-03-05T04:31:52;26.45;;;17.13;;
11681;SDS011;5897;42.640;23.310;2023-03-05T04:34:19;26.67;;;16.65;;
11681;SDS011;5897;42.640;23.310;2023-03-05T04:36:47;23.10;;;16.50;;
11681;SDS011;5897;42.640;23.310;2023-03-05T04:39:14;24.73;;;15.85;;
11681;SDS011;5897;42.640;23.310;2023-03-05T04:41:41;24.70;;;15.63;;
11681;SDS011;5897;42.640;23.310;2023-03-05T04:44:08;26.17;;;16.02;;
11681;SDS011;5897;42.640;23.310;2023-03-05T04:46:35;25.15;;;14.90;;
11681;SDS011;5897;42.640;23.310;2023-03-05T04:49:01;25.30;;;16.75;;
11681;SDS011;5897;42.640;23.310;2023-03-05T04:51:28;24.25;;;14.77;;
11681;SDS011;5897;42.640;23.310;2023-03-05T04:53:56;21.92;;;14.48;;
11681;SDS011;5897;42.640;23.310;2023-03-05T04:56:23;26.23;;;16.10;;
11681;SDS011;5897;42.640;23.310;2023-03-05T04:58:50;21.30;;;14.20;;
11681;SDS011;5897;42.640;23.310;2023-03-05T05:01:17;23.38;;;14.48;;
11681;SDS011;5897;42.640;23.310;2023-03-05T05:03:44;19.38;;;13.88;;
11681;SDS011;5897;42.640;23.310;2023-03-05T05:06:11;23.00;;;15.00;;
11681;SDS011;5897;42.640;23.310;2023-03-05T05:08:37;22.77;;;15.10;;
11681;SDS011;5897;42.640;23.310;2023-03-05T05:11:06;20.27;;;14.48;;
11681;SDS011;5897;42.640;23.310;2023-03-05T05:13:33;22.17;;;14.02;;
11681;SDS011;5897;42.640;23.310;2023-03-05T05:16:00;20.45;;;13.43;;
11681;SDS011;5897;42.640;23.310;2023-03-05T05:18:27;20.90;;;13.65;;
11681;SDS011;5897;42.640;23.310;2023-03-05T05:20:54;26.02;;;14.80;;
11681;SDS011;5897;42.640;23.310;2023-03-05T05:23:21;23.13;;;14.10;;
11681;SDS011;5897;42.640;23.310;2023-03-05T05:25:54;21.33;;;13.95;;
11681;SDS011;5897;42.640;23.310;2023-03-05T05:28:24;21.98;;;13.80;;
11681;SDS011;5897;42.640;23.310;2023-03-05T05:30:51;21.02;;;13.00;;
11681;SDS011;5897;42.640;23.310;2023-03-05T05:33:18;22.52;;;13.93;;
11681;SDS011;5897;42.640;23.310;2023-03-05T05:35:45;20.88;;;13.23;;
11681;SDS011;5897;42.640;23.310;2023-03-05T05:38:12;22.20;;;13.70;;
11681;SDS011;5897;42.640;23.310;2023-03-05T05:40:39;19.88;;;12.65;;
11681;SDS011;5897;42.640;23.310;2023-03-05T05:43:06;20.73;;;12.43;;
11681;SDS011;5897;42.640;23.310;2023-03-05T05:45:36;18.70;;;11.05;;
11681;SDS011;5897;42.640;23.310;2023-03-05T05:48:03;16.58;;;10.95;;
11681;SDS011;5897;42.640;23.310;2023-03-05T05:50:30;15.38;;;9.77;;
11681;SDS011;5897;42.640;23.310;2023-03-05T05:52:59;21.55;;;11.55;;
11681;SDS011;5897;42.640;23.310;2023-03-05T05:55:26;19.50;;;10.85;;
11681;SDS011;5897;42.640;23.310;2023-03-05T05:57:53;16.02;;;10.35;;
11681;SDS011;5897;42.640;23.310;2023-03-05T06:00:20;15.20;;;9.70;;
11681;SDS011;5897;42.640;23.310;2023-03-05T06:02:49;17.48;;;10.65;;
11681;SDS011;5897;42.640;23.310;2023-03-05T06:05:15;15.82;;;10.40;;
11681;SDS011;5897;42.640;23.310;2023-03-05T06:07:42;18.17;;;11.15;;
11681;SDS011;5897;42.640;23.310;2023-03-05T06:10:10;16.77;;;10.30;;
11681;SDS011;5897;42.640;23.310;2023-03-05T06:12:37;15.32;;;9.68;;
11681;SDS011;5897;42.640;23.310;2023-03-05T06:15:04;15.93;;;9.88;;
11681;SDS011;5897;42.640;23.310;2023-03-05T06:17:31;17.73;;;11.23;;
11681;SDS011;5897;42.640;23.310;2023-03-05T06:20:00;15.48;;;10.52;;
11681;SDS011;5897;42.640;23.310;2023-03-05T06:22:28;20.67;;;8.98;;
11681;SDS011;5897;42.640;23.310;2023-03-05T06:24:55;15.07;;;9.90;;
11681;SDS011;5897;42.640;23.310;2023-03-05T06:27:22;15.70;;;9.55;;
11681;SDS011;5897;42.640;23.310;2023-03-05T06:29:50;15.68;;;10.02;;
11681;SDS011;5897;42.640;23.310;2023-03-05T06:32:18;15.57;;;9.88;;
11681;SDS011;5897;42.640;23.310;2023-03-05T06:34:45;15.15;;;9.93;;
11681;SDS011;5897;42.640;23.310;2023-03-05T06:37:13;15.35;;;9.70;;
11681;SDS011;5897;42.640;23.310;2023-03-05T06:39:40;14.88;;;9.30;;
11681;SDS011;5897;42.640;23.310;2023-03-05T06:42:07;16.20;;;9.65;;
11681;SDS011;5897;42.640;23.310;2023-03-05T06:44:36;13.38;;;9.43;;
11681;SDS011;5897;42.640;23.310;2023-03-05T06:47:03;16.15;;;9.75;;
11681;SDS011;5897;42.640;23.310;2023-03-05T06:49:30;15.32;;;10.20;;
11681;SDS011;5897;42.640;23.310;2023-03-05T06:51:57;15.93;;;10.02;;
11681;SDS011;5897;42.640;23.310;2023-03-05T06:54:25;15.73;;;9.07;;
11681;SDS011;5897;42.640;23.310;2023-03-05T06:56:52;19.02;;;8.82;;
11681;SDS011;5897;42.640;23.310;2023-03-05T06:59:19;15.68;;;9.55;;
11681;SDS011;5897;42.640;23.310;2023-03-05T07:01:46;17.20;;;10.57;;
11681;SDS011;5897;42.640;23.310;2023-03-05T07:04:14;15.00;;;9.85;;
11681;SDS011;5897;42.640;23.310;2023-03-05T07:06:41;17.98;;;11.23;;
11681;SDS011;5897;42.640;23.310;2023-03-05T07:09:09;17.17;;;11.25;;
11681;SDS011;5897;42.640;23.310;2023-03-05T07:11:40;19.05;;;11.07;;
11681;SDS011;5897;42.640;23.310;2023-03-05T07:14:07;17.10;;;11.20;;
11681;SDS011;5897;42.640;23.310;2023-03-05T07:16:34;17.85;;;11.73;;
11681;SDS011;5897;42.640;23.310;2023-03-05T07:19:01;16.60;;;11.73;;
11681;SDS011;5897;42.640;23.310;2023-03-05T07:21:31;20.27;;;12.68;;
11681;SDS011;5897;42.640;23.310;2023-03-05T07:24:00;16.55;;;11.85;;
11681;SDS011;5897;42.640;23.310;2023-03-05T07:26:28;17.25;;;12.50;;
11681;SDS011;5897;42.640;23.310;2023-03-05T07:28:58;20.38;;;13.02;;
11681;SDS011;5897;42.640;23.310;2023-03-05T07:31:25;18.52;;;11.85;;
11681;SDS011;5897;42.640;23.310;2023-03-05T07:33:55;19.70;;;13.75;;
11681;SDS011;5897;42.640;23.310;2023-03-05T07:36:23;20.25;;;13.38;;
11681;SDS011;5897;42.640;23.310;2023-03-05T07:38:51;20.45;;;12.70;;
11681;SDS011;5897;42.640;23.310;2023-03-05T07:41:18;19.23;;;12.88;;
11681;SDS011;5897;42.640;23.310;2023-03-05T07:43:47;21.08;;;13.73;;
11681;SDS011;5897;42.640;23.310;2023-03-05T07:46:17;20.45;;;13.25;;
11681;SDS011;5897;42.640;23.310;2023-03-05T07:48:46;20.98;;;14.40;;
11681;SDS011;5897;42.640;23.310;2023-03-05T07:51:14;21.20;;;14.70;;
11681;SDS011;5897;42.640;23.310;2023-03-05T07:53:42;22.05;;;14.25;;
11681;SDS011;5897;42.640;23.310;2023-03-05T07:56:10;20.38;;;13.73;;
11681;SDS011;5897;42.640;23.310;2023-03-05T07:58:37;23.00;;;14.95;;
11681;SDS011;5897;42.640;23.310;2023-03-05T08:01:09;21.80;;;14.57;;
11681;SDS011;5897;42.640;23.310;2023-03-05T08:03:39;20.33;;;14.40;;
11681;SDS011;5897;42.640;23.310;2023-03-05T08:06:06;22.42;;;14.82;;
11681;SDS011;5897;42.640;23.310;2023-03-05T08:08:34;23.50;;;15.32;;
11681;SDS011;5897;42.640;23.310;2023-03-05T08:11:02;24.85;;;16.55;;
11681;SDS011;5897;42.640;23.310;2023-03-05T08:13:30;24.27;;;16.42;;
11681;SDS011;5897;42.640;23.310;2023-03-05T08:15:57;25.63;;;16.23;;
11681;SDS011;5897;42.640;23.310;2023-03-05T08:18:23;25.33;;;15.77;;
11681;SDS011;5897;42.640;23.310;2023-03-05T08:20:51;23.17;;;15.30;;
11681;SDS011;5897;42.640;23.310;2023-03-05T08:23:18;22.70;;;15.73;;
11681;SDS011;5897;42.640;23.310;2023-03-05T08:25:45;24.83;;;15.13;;
11681;SDS011;5897;42.640;23.310;2023-03-05T08:28:12;24.38;;;15.63;;
11681;SDS011;5897;42.640;23.310;2023-03-05T08:30:40;24.25;;;15.80;;
11681;SDS011;5897;42.640;23.310;2023-03-05T08:33:07;23.20;;;15.30;;
11681;SDS011;5897;42.640;23.310;2023-03-05T08:35:34;24.00;;;15.63;;
11681;SDS011;5897;42.640;23.310;2023-03-05T08:38:02;22.75;;;14.88;;
11681;SDS011;5897;42.640;23.310;2023-03-05T08:40:29;23.15;;;15.38;;
11681;SDS011;5897;42.640;23.310;2023-03-05T08:42:56;24.65;;;15.52;;
11681;SDS011;5897;42.640;23.310;2023-03-05T08:45:23;23.27;;;15.23;;
11681;SDS011;5897;42.640;23.310;2023-03-05T08:47:52;20.15;;;14.27;;
11681;SDS011;5897;42.640;23.310;2023-03-05T08:50:21;22.50;;;15.43;;
11681;SDS011;5897;42.640;23.310;2023-03-05T08:52:48;23.38;;;14.80;;
11681;SDS011;5897;42.640;23.310;2023-03-05T08:55:17;21.77;;;14.32;;
11681;SDS011;5897;42.640;23.310;2023-03-05T08:57:44;20.77;;;13.88;;
11681;SDS011;5897;42.640;23.310;2023-03-05T09:00:11;21.50;;;14.55;;
11681;SDS011;5897;42.640;23.310;2023-03-05T09:02:39;20.08;;;14.30;;
11681;SDS011;5897;42.640;23.310;2023-03-05T09:05:06;21.73;;;15.80;;
11681;SDS011;5897;42.640;23.310;2023-03-05T09:07:33;19.05;;;14.23;;
11681;SDS011;5897;42.640;23.310;2023-03-05T09:10:02;20.52;;;15.27;;
11681;SDS011;5897;42.640;23.310;2023-03-05T09:12:31;20.70;;;14.75;;
11681;SDS011;5897;42.640;23.310;2023-03-05T09:14:58;22.08;;;14.95;;
11681;SDS011;5897;42.640;23.310;2023-03-05T09:17:25;20.70;;;14.40;;
11681;SDS011;5897;42.640;23.310;2023-03-05T09:19:52;25.58;;;14.90;;
11681;SDS011;5897;42.640;23.310;2023-03-05T09:22:19;20.42;;;14.00;;
11681;SDS011;5897;42.640;23.310;2023-03-05T09:24:45;20.42;;;13.82;;
11681;SDS011;5897;42.640;23.310;2023-03-05T09:27:12;21.02;;;14.13;;
11681;SDS011;5897;42.640;23.310;2023-03-05T09:29:40;22.45;;;14.70;;
11681;SDS011;5897;42.640;23.310;2023-03-05T09:32:07;20.02;;;13.65;;
11681;SDS011;5897;42.640;23.310;2023-03-05T09:34:34;21.05;;;13.30;;
11681;SDS011;5897;42.640;23.310;2023-03-05T09:37:01;19.35;;;13.48;;
11681;SDS011;5897;42.640;23.310;2023-03-05T09:39:28;19.10;;;13.40;;
11681;SDS011;5897;42.640;23.310;2023-03-05T09:42:01;22.38;;;13.27;;
11681;SDS011;5897;42.640;23.310;2023-03-05T09:44:42;18.75;;;13.77;;
11681;SDS011;5897;42.640;23.310;2023-03-05T09:47:20;20.10;;;13.60;;
11681;SDS011;5897;42.640;23.310;2023-03-05T09:49:57;19.58;;;14.20;;
11681;SDS011;5897;42.640;23.310;2023-03-05T09:52:30;20.00;;;13.60;;
11681;SDS011;5897;42.640;23.310;2023-03-05T09:55:04;21.38;;;12.95;;
11681;SDS011;5897;42.640;23.310;2023-03-05T09:57:39;19.35;;;13.75;;
11681;SDS011;5897;42.640;23.310;2023-03-05T10:00:14;19.75;;;13.55;;
11681;SDS011;5897;42.640;23.310;2023-03-05T10:02:51;21.58;;;15.02;;
11681;SDS011;5897;42.640;23.310;2023-03-05T10:05:23;18.98;;;13.38;;
11681;SDS011;5897;42.640;23.310;2023-03-05T10:07:56;18.30;;;13.07;;
11681;SDS011;5897;42.640;23.310;2023-03-05T10:10:27;20.00;;;14.07;;
11681;SDS011;5897;42.640;23.310;2023-03-05T10:13:01;19.58;;;12.85;;
11681;SDS011;5897;42.640;23.310;2023-03-05T10:15:39;17.15;;;13.05;;
11681;SDS011;5897;42.640;23.310;2023-03-05T10:18:17;18.75;;;13.13;;
11681;SDS011;5897;42.640;23.310;2023-03-05T10:20:53;18.83;;;13.68;;
11681;SDS011;5897;42.640;23.310;2023-03-05T10:23:27;18.85;;;13.20;;
11681;SDS011;5897;42.640;23.310;2023-03-05T10:26:26;18.15;;;11.80;;
11681;SDS011;5897;42.640;23.310;2023-03-05T10:29:07;17.55;;;11.27;;
11681;SDS011;5897;42.640;23.310;2023-03-05T10:31:47;16.08;;;11.93;;
11681;SDS011;5897;42.640;23.310;2023-03-05T10:34:24;15.85;;;11.85;;
11681;SDS011;5897;42.640;23.310;2023-03-05T10:37:13;16.27;;;11.30;;
11681;SDS011;5897;42.640;23.310;2023-03-05T10:39:58;16.98;;;11.10;;
11681;SDS011;5897;42.640;23.310;2023-03-05T10:42:35;15.40;;;10.40;;
11681;SDS011;5897;42.640;23.310;2023-03-05T10:45:12;15.15;;;10.05;;
11681;SDS011;5897;42.640;23.310;2023-03-05T10:47:43;17.10;;;10.93;;
11681;SDS011;5897;42.640;23.310;2023-03-05T10:50:15;14.90;;;10.65;;
11681;SDS011;5897;42.640;23.310;2023-03-05T10:52:44;13.38;;;9.70;;
11681;SDS011;5897;42.640;23.310;2023-03-05T10:55:16;13.73;;;10.25;;
11681;SDS011;5897;42.640;23.310;2023-03-05T10:57:45;15.00;;;11.02;;
11681;SDS011;5897;42.640;23.310;2023-03-05T11:00:16;17.35;;;11.52;;
11681;SDS011;5897;42.640;23.310;2023-03-05T11:02:56;13.85;;;10.90;;
11681;SDS011;5897;42.640;23.310;2023-03-05T11:05:44;15.88;;;11.50;;
11681;SDS011;5897;42.640;23.310;2023-03-05T11:08:22;18.67;;;11.32;;
11681;SDS011;5897;42.640;23.310;2023-03-05T11:11:11;15.15;;;11.65;;
11681;SDS011;5897;42.640;23.310;2023-03-05T11:16:27;14.70;;;9.55;;
11681;SDS011;5897;42.640;23.310;2023-03-05T11:19:14;11.85;;;9.23;;
11681;SDS011;5897;42.640;23.310;2023-03-05T11:21:43;12.55;;;9.63;;
11681;SDS011;5897;42.640;23.310;2023-03-05T11:24:11;13.40;;;9.80;;
11681;SDS011;5897;42.640;23.310;2023-03-05T11:26:49;13.57;;;9.52;;
11681;SDS011;5897;42.640;23.310;2023-03-05T11:29:20;12.73;;;9.73;;
11681;SDS011;5897;42.640;23.310;2023-03-05T11:31:48;12.85;;;10.07;;
11681;SDS011;5897;42.640;23.310;2023-03-05T11:34:22;13.02;;;9.68;;
11681;SDS011;5897;42.640;23.310;2023-03-05T11:37:00;14.25;;;10.57;;
11681;SDS011;5897;42.640;23.310;2023-03-05T11:39:30;13.55;;;10.43;;
11681;SDS011;5897;42.640;23.310;2023-03-05T11:42:00;15.95;;;11.02;;
11681;SDS011;5897;42.640;23.310;2023-03-05T11:44:31;15.65;;;11.35;;
11681;SDS011;5897;42.640;23.310;2023-03-05T11:47:08;16.67;;;10.93;;
11681;SDS011;5897;42.640;23.310;2023-03-05T11:49:45;14.20;;;10.77;;
11681;SDS011;5897;42.640;23.310;2023-03-05T11:52:17;13.57;;;10.93;;
11681;SDS011;5897;42.640;23.310;2023-03-05T11:54:51;12.65;;;9.93;;
11681;SDS011;5897;42.640;23.310;2023-03-05T11:57:24;15.60;;;10.10;;
11681;SDS011;5897;42.640;23.310;2023-03-05T11:59:53;12.18;;;9.18;;
11681;SDS011;5897;42.640;23.310;2023-03-05T12:02:22;12.23;;;10.20;;
11681;SDS011;5897;42.640;23.310;2023-03-05T12:04:52;13.82;;;10.00;;
11681;SDS011;5897;42.640;23.310;2023-03-05T12:07:21;13.77;;;10.38;;
11681;SDS011;5897;42.640;23.310;2023-03-05T12:09:56;13.93;;;10.40;;
11681;SDS011;5897;42.640;23.310;2023-03-05T12:12:27;12.75;;;10.27;;
11681;SDS011;5897;42.640;23.310;2023-03-05T12:15:05;13.88;;;11.00;;
11681;SDS011;5897;42.640;23.310;2023-03-05T12:17:53;15.20;;;11.02;;
11681;SDS011;5897;42.640;23.310;2023-03-05T12:20:32;14.55;;;10.68;;
11681;SDS011;5897;42.640;23.310;2023-03-05T12:23:04;12.55;;;10.32;;
11681;SDS011;5897;42.640;23.310;2023-03-05T12:25:32;13.95;;;10.27;;
11681;SDS011;5897;42.640;23.310;2023-03-05T12:28:00;14.52;;;9.98;;
11681;SDS011;5897;42.640;23.310;2023-03-05T12:33:29;13.50;;;9.60;;
11681;SDS011;5897;42.640;23.310;2023-03-05T12:45:26;13.00;;;10.35;;
11681;SDS011;5897;42.640;23.310;2023-03-05T12:51:33;12.40;;;9.27;;
11681;SDS011;5897;42.640;23.310;2023-03-05T12:54:26;12.85;;;9.60;;
11681;SDS011;5897;42.640;23.310;2023-03-05T12:56:56;11.90;;;10.15;;
11681;SDS011;5897;42.640;23.310;2023-03-05T12:59:24;15.75;;;10.32;;
11681;SDS011;5897;42.640;23.310;2023-03-05T13:01:57;12.63;;;9.98;;
11681;SDS011;5897;42.640;23.310;2023-03-05T13:04:27;16.23;;;9.73;;
11681;SDS011;5897;42.640;23.310;2023-03-05T13:07:00;11.52;;;9.13;;
11681;SDS011;5897;42.640;23.310;2023-03-05T13:09:30;13.73;;;9.30;;
11681;SDS011;5897;42.640;23.310;2023-03-05T13:11:59;10.55;;;8.23;;
11681;SDS011;5897;42.640;23.310;2023-03-05T13:14:36;11.23;;;8.80;;
11681;SDS011;5897;42.640;23.310;2023-03-05T13:17:23;13.18;;;9.15;;
11681;SDS011;5897;42.640;23.310;2023-03-05T13:19:53;12.32;;;9.25;;
11681;SDS011;5897;42.640;23.310;2023-03-05T13:22:20;11.35;;;8.55;;
11681;SDS011;5897;42.640;23.310;2023-03-05T13:24:50;10.90;;;8.48;;
11681;SDS011;5897;42.640;23.310;2023-03-05T13:27:30;11.55;;;8.30;;
11681;SDS011;5897;42.640;23.310;2023-03-05T13:29:58;9.57;;;7.88;;
11681;SDS011;5897;42.640;23.310;2023-03-05T13:32:25;10.48;;;8.20;;
11681;SDS011;5897;42.640;23.310;2023-03-05T13:34:54;10.80;;;8.50;;
11681;SDS011;5897;42.640;23.310;2023-03-05T13:37:24;12.77;;;8.52;;
11681;SDS011;5897;42.640;23.310;2023-03-05T13:39:54;12.77;;;9.18;;
11681;SDS011;5897;42.640;23.310;2023-03-05T13:42:24;12.88;;;9.70;;
11681;SDS011;5897;42.640;23.310;2023-03-05T13:44:54;12.80;;;9.52;;
11681;SDS011;5897;42.640;23.310;2023-03-05T13:47:23;14.93;;;10.15;;
11681;SDS011;5897;42.640;23.310;2023-03-05T13:49:55;14.55;;;10.45;;
11681;SDS011;5897;42.640;23.310;2023-03-05T13:52:24;15.23;;;10.85;;
11681;SDS011;5897;42.640;23.310;2023-03-05T13:54:55;15.10;;;10.38;;
11681;SDS011;5897;42.640;23.310;2023-03-05T13:57:33;16.00;;;10.60;;
11681;SDS011;5897;42.640;23.310;2023-03-05T14:00:02;16.30;;;11.02;;
11681;SDS011;5897;42.640;23.310;2023-03-05T14:02:30;14.27;;;10.77;;
11681;SDS011;5897;42.640;23.310;2023-03-05T14:04:57;13.57;;;9.98;;
11681;SDS011;5897;42.640;23.310;2023-03-05T14:07:27;14.18;;;10.13;;
11681;SDS011;5897;42.640;23.310;2023-03-05T14:09:58;15.23;;;10.02;;
11681;SDS011;5897;42.640;23.310;2023-03-05T14:12:28;16.23;;;10.43;;
11681;SDS011;5897;42.640;23.310;2023-03-05T14:15:01;15.10;;;10.40;;
11681;SDS011;5897;42.640;23.310;2023-03-05T14:17:33;14.20;;;10.52;;
11681;SDS011;5897;42.640;23.310;2023-03-05T14:20:08;14.13;;;10.00;;
11681;SDS011;5897;42.640;23.310;2023-03-05T14:22:46;14.70;;;11.32;;
11681;SDS011;5897;42.640;23.310;2023-03-05T14:25:31;15.60;;;11.10;;
11681;SDS011;5897;42.640;23.310;2023-03-05T14:28:01;16.50;;;10.98;;
11681;SDS011;5897;42.640;23.310;2023-03-05T14:30:30;15.30;;;10.07;;
11681;SDS011;5897;42.640;23.310;2023-03-05T14:33:00;16.35;;;10.55;;
11681;SDS011;5897;42.640;23.310;2023-03-05T14:35:28;16.52;;;10.00;;
11681;SDS011;5897;42.640;23.310;2023-03-05T14:37:56;15.13;;;10.40;;
11681;SDS011;5897;42.640;23.310;2023-03-05T14:40:29;14.48;;;11.27;;
11681;SDS011;5897;42.640;23.310;2023-03-05T14:42:59;15.40;;;10.52;;
11681;SDS011;5897;42.640;23.310;2023-03-05T14:45:27;15.75;;;11.10;;
11681;SDS011;5897;42.640;23.310;2023-03-05T14:47:55;13.30;;;9.98;;
11681;SDS011;5897;42.640;23.310;2023-03-05T14:50:24;15.65;;;10.50;;
11681;SDS011;5897;42.640;23.310;2023-03-05T14:52:53;15.65;;;10.48;;
11681;SDS011;5897;42.640;23.310;2023-03-05T14:55:28;13.65;;;11.02;;
11681;SDS011;5897;42.640;23.310;2023-03-05T14:58:37;16.52;;;10.98;;
11681;SDS011;5897;42.640;23.310;2023-03-05T15:01:23;15.10;;;10.68;;